sensor_id;sensor_type;location;lat;lon;timestamp;temperature;humidity
9033;DHT22;4551;53.164;8.210;2023-04-02T00:01:41;3.40;99.90
9033;DHT22;4551;53.164;8.210;2023-04-02T00:04:18;3.40;99.90
9033;DHT22;4551;53.164;8.210;2023-04-02T00:06:53;3.30;99.90
9033;DHT22;4551;53.164;8.210;2023-04-02T00:12:10;3.30;99.90
9033;DHT22;4551;53.164;8.210;2023-04-02T00:14:45;3.30;99.90
9033;DHT22;4551;53.164;8.210;2023-04-02T00:17:14;3.30;99.90
9033;DHT22;4551;53.164;8.210;2023-04-02T00:19:44;3.20;99.90
9033;DHT22;4551;53.164;8.210;2023-04-02T00:22:15;3.20;99.90
9033;DHT22;4551;53.164;8.210;2023-04-02T00:24:44;3.10;99.90
9033;DHT22;4551;53.164;8.210;2023-04-02T00:27:12;3.10;99.90
9033;DHT22;4551;53.164;8.210;2023-04-02T00:29:45;3.10;99.90
9033;DHT22;4551;53.164;8.210;2023-04-02T00:32:18;3.00;99.90
9033;DHT22;4551;53.164;8.210;2023-04-02T00:34:47;3.00;99.90
9033;DHT22;4551;53.164;8.210;2023-04-02T00:37:16;3.00;99.90
9033;DHT22;4551;53.164;8.210;2023-04-02T00:39:50;2.90;99.90
9033;DHT22;4551;53.164;8.210;2023-04-02T00:42:21;2.90;99.90
9033;DHT22;4551;53.164;8.210;2023-04-02T00:44:52;2.90;99.90
9033;DHT22;4551;53.164;8.210;2023-04-02T00:47:22;2.90;99.90
9033;DHT22;4551;53.164;8.210;2023-04-02T00:49:54;2.80;99.90
9033;DHT22;4551;53.164;8.210;2023-04-02T00:52:24;2.80;99.90
9033;DHT22;4551;53.164;8.210;2023-04-02T00:54:55;2.80;99.90
9033;DHT22;4551;53.164;8.210;2023-04-02T00:57:25;2.80;99.90
9033;DHT22;4551;53.164;8.210;2023-04-02T00:59:56;2.70;99.90
9033;DHT22;4551;53.164;8.210;2023-04-02T01:02:26;2.70;99.90
9033;DHT22;4551;53.164;8.210;2023-04-02T01:04:56;2.60;99.90
9033;DHT22;4551;53.164;8.210;2023-04-02T01:07:32;2.60;99.90
9033;DHT22;4551;53.164;8.210;2023-04-02T01:10:10;2.60;99.90
9033;DHT22;4551;53.164;8.210;2023-04-02T01:12:48;2.60;99.90
9033;DHT22;4551;53.164;8.210;2023-04-02T01:15:26;2.50;99.90
9033;DHT22;4551;53.164;8.210;2023-04-02T01:18:07;2.50;99.90
9033;DHT22;4551;53.164;8.210;2023-04-02T01:23:31;2.40;99.90
9033;DHT22;4551;53.164;8.210;2023-04-02T01:26:03;2.40;99.90
9033;DHT22;4551;53.164;8.210;2023-04-02T01:28:42;2.40;99.90
9033;DHT22;4551;53.164;8.210;2023-04-02T01:31:11;2.40;99.90
9033;DHT22;4551;53.164;8.210;2023-04-02T01:33:41;2.40;99.90
9033;DHT22;4551;53.164;8.210;2023-04-02T01:36:10;2.40;99.90
9033;DHT22;4551;53.164;8.210;2023-04-02T01:38:44;2.40;99.90
9033;DHT22;4551;53.164;8.210;2023-04-02T01:41:15;2.30;99.90
9033;DHT22;4551;53.164;8.210;2023-04-02T01:43:50;2.30;99.90
9033;DHT22;4551;53.164;8.210;2023-04-02T01:46:22;2.30;99.90
9033;DHT22;4551;53.164;8.210;2023-04-02T01:48:51;2.30;99.90
9033;DHT22;4551;53.164;8.210;2023-04-02T01:51:24;2.30;99.90
9033;DHT22;4551;53.164;8.210;2023-04-02T01:53:53;2.20;99.90
9033;DHT22;4551;53.164;8.210;2023-04-02T01:56:21;2.20;99.90
9033;DHT22;4551;53.164;8.210;2023-04-02T01:58:51;2.20;99.90
9033;DHT22;4551;53.164;8.210;2023-04-02T02:01:20;2.10;99.90
9033;DHT22;4551;53.164;8.210;2023-04-02T02:03:49;2.10;99.90
9033;DHT22;4551;53.164;8.210;2023-04-02T02:06:17;2.10;99.90
9033;DHT22;4551;53.164;8.210;2023-04-02T02:08:46;2.20;99.90
9033;DHT22;4551;53.164;8.210;2023-04-02T02:11:17;2.10;99.90
9033;DHT22;4551;53.164;8.210;2023-04-02T02:14:00;2.10;99.90
9033;DHT22;4551;53.164;8.210;2023-04-02T02:16:33;2.00;99.90
9033;DHT22;4551;53.164;8.210;2023-04-02T02:19:10;2.00;99.90
9033;DHT22;4551;53.164;8.210;2023-04-02T02:21:48;2.00;99.90
9033;DHT22;4551;53.164;8.210;2023-04-02T02:24:18;2.00;99.90
9033;DHT22;4551;53.164;8.210;2023-04-02T02:26:48;1.90;99.90
9033;DHT22;4551;53.164;8.210;2023-04-02T02:29:17;1.90;99.90
9033;DHT22;4551;53.164;8.210;2023-04-02T02:31:47;1.90;99.90
9033;DHT22;4551;53.164;8.210;2023-04-02T02:34:19;1.90;99.90
9033;DHT22;4551;53.164;8.210;2023-04-02T02:36:50;1.90;99.90
9033;DHT22;4551;53.164;8.210;2023-04-02T02:39:19;1.80;99.90
9033;DHT22;4551;53.164;8.210;2023-04-02T02:41:49;1.80;99.90
9033;DHT22;4551;53.164;8.210;2023-04-02T02:44:19;1.80;99.90
9033;DHT22;4551;53.164;8.210;2023-04-02T02:46:51;1.80;99.90
9033;DHT22;4551;53.164;8.210;2023-04-02T02:49:23;1.80;99.90
9033;DHT22;4551;53.164;8.210;2023-04-02T02:51:54;1.80;99.90
9033;DHT22;4551;53.164;8.210;2023-04-02T02:54:24;1.70;99.90
9033;DHT22;4551;53.164;8.210;2023-04-02T02:56:54;1.70;99.90
9033;DHT22;4551;53.164;8.210;2023-04-02T02:59:23;1.70;99.90
9033;DHT22;4551;53.164;8.210;2023-04-02T03:01:53;1.70;99.90
9033;DHT22;4551;53.164;8.210;2023-04-02T03:04:23;1.70;99.90
9033;DHT22;4551;53.164;8.210;2023-04-02T03:06:52;1.70;99.90
9033;DHT22;4551;53.164;8.210;2023-04-02T03:09:21;1.70;99.90
9033;DHT22;4551;53.164;8.210;2023-04-02T03:11:58;1.60;99.90
9033;DHT22;4551;53.164;8.210;2023-04-02T03:14:30;1.60;99.90
9033;DHT22;4551;53.164;8.210;2023-04-02T03:17:02;1.60;99.90
9033;DHT22;4551;53.164;8.210;2023-04-02T03:19:33;1.60;99.90
9033;DHT22;4551;53.164;8.210;2023-04-02T03:22:03;1.60;99.90
9033;DHT22;4551;53.164;8.210;2023-04-02T03:24:34;1.60;99.90
9033;DHT22;4551;53.164;8.210;2023-04-02T03:27:04;1.60;99.90
9033;DHT22;4551;53.164;8.210;2023-04-02T03:29:33;1.70;99.90
9033;DHT22;4551;53.164;8.210;2023-04-02T03:32:06;1.70;99.90
9033;DHT22;4551;53.164;8.210;2023-04-02T03:34:40;1.70;99.90
9033;DHT22;4551;53.164;8.210;2023-04-02T03:37:09;1.70;99.90
9033;DHT22;4551;53.164;8.210;2023-04-02T03:39:41;1.70;99.90
9033;DHT22;4551;53.164;8.210;2023-04-02T03:42:12;1.60;99.90
9033;DHT22;4551;53.164;8.210;2023-04-02T03:44:43;1.70;99.90
9033;DHT22;4551;53.164;8.210;2023-04-02T03:47:15;1.60;99.90
9033;DHT22;4551;53.164;8.210;2023-04-02T03:49:46;1.60;99.90
9033;DHT22;4551;53.164;8.210;2023-04-02T03:52:16;1.60;99.90
9033;DHT22;4551;53.164;8.210;2023-04-02T03:54:47;1.60;99.90
9033;DHT22;4551;53.164;8.210;2023-04-02T03:57:21;1.60;99.90
9033;DHT22;4551;53.164;8.210;2023-04-02T03:59:53;0.50;99.90
9033;DHT22;4551;53.164;8.210;2023-04-02T04:02:32;1.50;99.90
9033;DHT22;4551;53.164;8.210;2023-04-02T04:05:01;1.50;99.90
9033;DHT22;4551;53.164;8.210;2023-04-02T04:07:31;1.50;99.90
9033;DHT22;4551;53.164;8.210;2023-04-02T04:10:01;1.50;99.90
9033;DHT22;4551;53.164;8.210;2023-04-02T04:12:30;1.50;99.90
9033;DHT22;4551;53.164;8.210;2023-04-02T04:14:59;1.50;99.90
9033;DHT22;4551;53.164;8.210;2023-04-02T04:17:33;1.50;99.90
9033;DHT22;4551;53.164;8.210;2023-04-02T04:20:08;1.50;99.90
9033;DHT22;4551;53.164;8.210;2023-04-02T04:22:41;1.50;99.90
9033;DHT22;4551;53.164;8.210;2023-04-02T04:25:17;1.50;99.90
9033;DHT22;4551;53.164;8.210;2023-04-02T04:27:47;1.40;99.90
9033;DHT22;4551;53.164;8.210;2023-04-02T04:30:19;1.40;99.90
9033;DHT22;4551;53.164;8.210;2023-04-02T04:32:52;1.50;99.90
9033;DHT22;4551;53.164;8.210;2023-04-02T04:35:24;1.40;99.90
9033;DHT22;4551;53.164;8.210;2023-04-02T04:37:54;1.40;99.90
9033;DHT22;4551;53.164;8.210;2023-04-02T04:40:25;1.40;99.90
9033;DHT22;4551;53.164;8.210;2023-04-02T04:42:55;1.40;99.90
9033;DHT22;4551;53.164;8.210;2023-04-02T04:45:29;1.40;99.90
9033;DHT22;4551;53.164;8.210;2023-04-02T04:48:05;1.40;99.90
9033;DHT22;4551;53.164;8.210;2023-04-02T04:50:36;1.30;99.90
9033;DHT22;4551;53.164;8.210;2023-04-02T04:53:05;1.40;99.90
9033;DHT22;4551;53.164;8.210;2023-04-02T04:55:37;1.40;99.90
9033;DHT22;4551;53.164;8.210;2023-04-02T04:58:08;1.40;99.90
9033;DHT22;4551;53.164;8.210;2023-04-02T05:00:42;1.40;99.90
9033;DHT22;4551;53.164;8.210;2023-04-02T05:03:19;1.40;99.90
9033;DHT22;4551;53.164;8.210;2023-04-02T05:05:49;1.40;99.90
9033;DHT22;4551;53.164;8.210;2023-04-02T05:08:19;1.40;99.90
9033;DHT22;4551;53.164;8.210;2023-04-02T05:10:49;1.40;99.90
9033;DHT22;4551;53.164;8.210;2023-04-02T05:13:19;1.40;99.90
9033;DHT22;4551;53.164;8.210;2023-04-02T05:15:52;1.40;99.90
9033;DHT22;4551;53.164;8.210;2023-04-02T05:18:24;1.40;99.90
9033;DHT22;4551;53.164;8.210;2023-04-02T05:20:55;1.50;99.90
9033;DHT22;4551;53.164;8.210;2023-04-02T05:23:25;1.40;99.90
9033;DHT22;4551;53.164;8.210;2023-04-02T05:25:54;1.50;99.90
9033;DHT22;4551;53.164;8.210;2023-04-02T05:28:27;1.50;99.90
9033;DHT22;4551;53.164;8.210;2023-04-02T05:30:57;1.40;99.90
9033;DHT22;4551;53.164;8.210;2023-04-02T05:33:29;1.40;99.90
9033;DHT22;4551;53.164;8.210;2023-04-02T05:35:58;1.40;99.90
9033;DHT22;4551;53.164;8.210;2023-04-02T05:38:27;1.40;99.90
9033;DHT22;4551;53.164;8.210;2023-04-02T05:41:00;1.50;99.90
9033;DHT22;4551;53.164;8.210;2023-04-02T05:43:29;1.50;99.90
9033;DHT22;4551;53.164;8.210;2023-04-02T05:46:00;1.50;99.90
9033;DHT22;4551;53.164;8.210;2023-04-02T05:48:33;1.50;99.90
9033;DHT22;4551;53.164;8.210;2023-04-02T05:51:06;1.50;99.90
9033;DHT22;4551;53.164;8.210;2023-04-02T05:53:35;1.50;99.90
9033;DHT22;4551;53.164;8.210;2023-04-02T05:56:05;1.50;99.90
9033;DHT22;4551;53.164;8.210;2023-04-02T05:58:36;1.50;99.90
9033;DHT22;4551;53.164;8.210;2023-04-02T06:01:09;1.60;99.90
9033;DHT22;4551;53.164;8.210;2023-04-02T06:03:48;1.60;99.90
9033;DHT22;4551;53.164;8.210;2023-04-02T06:06:23;1.60;99.90
9033;DHT22;4551;53.164;8.210;2023-04-02T06:08:55;1.60;99.90
9033;DHT22;4551;53.164;8.210;2023-04-02T06:11:25;1.60;99.90
9033;DHT22;4551;53.164;8.210;2023-04-02T06:13:54;1.70;99.90
9033;DHT22;4551;53.164;8.210;2023-04-02T06:16:25;1.70;99.90
9033;DHT22;4551;53.164;8.210;2023-04-02T06:18:55;1.70;99.90
9033;DHT22;4551;53.164;8.210;2023-04-02T06:21:23;1.70;99.90
9033;DHT22;4551;53.164;8.210;2023-04-02T06:23:53;1.70;99.90
9033;DHT22;4551;53.164;8.210;2023-04-02T06:26:24;1.80;99.90
9033;DHT22;4551;53.164;8.210;2023-04-02T06:28:54;1.80;99.90
9033;DHT22;4551;53.164;8.210;2023-04-02T06:31:27;1.80;99.90
9033;DHT22;4551;53.164;8.210;2023-04-02T06:33:58;1.90;99.90
9033;DHT22;4551;53.164;8.210;2023-04-02T06:36:26;1.90;99.90
9033;DHT22;4551;53.164;8.210;2023-04-02T06:38:54;2.00;99.90
9033;DHT22;4551;53.164;8.210;2023-04-02T06:41:24;2.00;99.90
9033;DHT22;4551;53.164;8.210;2023-04-02T06:43:52;2.00;99.90
9033;DHT22;4551;53.164;8.210;2023-04-02T06:46:24;2.00;99.90
9033;DHT22;4551;53.164;8.210;2023-04-02T06:48:55;2.00;99.90
9033;DHT22;4551;53.164;8.210;2023-04-02T06:51:25;2.10;99.90
9033;DHT22;4551;53.164;8.210;2023-04-02T06:53:55;2.10;99.90
9033;DHT22;4551;53.164;8.210;2023-04-02T06:56:26;2.20;99.90
9033;DHT22;4551;53.164;8.210;2023-04-02T06:58:57;2.20;99.90
9033;DHT22;4551;53.164;8.210;2023-04-02T07:01:27;2.30;99.90
9033;DHT22;4551;53.164;8.210;2023-04-02T07:03:55;2.30;99.90
9033;DHT22;4551;53.164;8.210;2023-04-02T07:06:25;2.40;99.90
9033;DHT22;4551;53.164;8.210;2023-04-02T07:08:59;2.40;99.90
9033;DHT22;4551;53.164;8.210;2023-04-02T07:11:28;2.40;99.90
9033;DHT22;4551;53.164;8.210;2023-04-02T07:13:56;2.50;99.90
9033;DHT22;4551;53.164;8.210;2023-04-02T07:16:25;2.50;99.90
9033;DHT22;4551;53.164;8.210;2023-04-02T07:18:54;2.60;99.90
9033;DHT22;4551;53.164;8.210;2023-04-02T07:21:25;2.60;99.90
9033;DHT22;4551;53.164;8.210;2023-04-02T07:23:57;2.60;99.90
9033;DHT22;4551;53.164;8.210;2023-04-02T07:26:26;2.70;99.90
9033;DHT22;4551;53.164;8.210;2023-04-02T07:28:54;2.70;99.90
9033;DHT22;4551;53.164;8.210;2023-04-02T07:31:23;2.70;99.90
9033;DHT22;4551;53.164;8.210;2023-04-02T07:33:54;2.80;99.90
9033;DHT22;4551;53.164;8.210;2023-04-02T07:36:24;2.80;99.90
9033;DHT22;4551;53.164;8.210;2023-04-02T07:38:53;2.80;99.90
9033;DHT22;4551;53.164;8.210;2023-04-02T07:41:21;2.90;99.90
9033;DHT22;4551;53.164;8.210;2023-04-02T07:43:50;2.90;99.90
9033;DHT22;4551;53.164;8.210;2023-04-02T07:46:18;3.00;99.90
9033;DHT22;4551;53.164;8.210;2023-04-02T07:48:46;3.00;99.90
9033;DHT22;4551;53.164;8.210;2023-04-02T07:51:15;3.10;99.90
9033;DHT22;4551;53.164;8.210;2023-04-02T07:53:44;3.10;99.90
9033;DHT22;4551;53.164;8.210;2023-04-02T07:56:17;3.20;99.90
9033;DHT22;4551;53.164;8.210;2023-04-02T07:58:46;3.20;99.90
9033;DHT22;4551;53.164;8.210;2023-04-02T08:01:15;3.20;99.90
9033;DHT22;4551;53.164;8.210;2023-04-02T08:03:44;3.30;99.90
9033;DHT22;4551;53.164;8.210;2023-04-02T08:06:12;3.30;99.90
9033;DHT22;4551;53.164;8.210;2023-04-02T08:08:40;3.40;99.90
9033;DHT22;4551;53.164;8.210;2023-04-02T08:11:08;3.40;99.90
9033;DHT22;4551;53.164;8.210;2023-04-02T08:13:38;3.50;99.90
9033;DHT22;4551;53.164;8.210;2023-04-02T08:16:06;3.50;99.90
9033;DHT22;4551;53.164;8.210;2023-04-02T08:18:35;3.60;99.90
9033;DHT22;4551;53.164;8.210;2023-04-02T08:21:04;3.60;99.90
9033;DHT22;4551;53.164;8.210;2023-04-02T08:23:33;3.70;99.90
9033;DHT22;4551;53.164;8.210;2023-04-02T08:26:01;3.70;99.90
9033;DHT22;4551;53.164;8.210;2023-04-02T08:28:29;3.70;99.90
9033;DHT22;4551;53.164;8.210;2023-04-02T08:30:59;3.80;99.90
9033;DHT22;4551;53.164;8.210;2023-04-02T08:33:28;3.80;99.90
9033;DHT22;4551;53.164;8.210;2023-04-02T08:36:01;3.90;99.90
9033;DHT22;4551;53.164;8.210;2023-04-02T08:38:31;4.00;99.90
9033;DHT22;4551;53.164;8.210;2023-04-02T08:40:59;4.00;99.90
9033;DHT22;4551;53.164;8.210;2023-04-02T08:43:35;4.20;99.90
9033;DHT22;4551;53.164;8.210;2023-04-02T08:46:07;4.20;99.90
9033;DHT22;4551;53.164;8.210;2023-04-02T08:48:39;4.30;99.90
9033;DHT22;4551;53.164;8.210;2023-04-02T08:51:15;4.30;99.90
9033;DHT22;4551;53.164;8.210;2023-04-02T08:53:49;4.40;99.90
9033;DHT22;4551;53.164;8.210;2023-04-02T08:56:19;4.50;99.90
9033;DHT22;4551;53.164;8.210;2023-04-02T08:58:49;4.50;99.90
9033;DHT22;4551;53.164;8.210;2023-04-02T09:01:21;4.60;99.90
9033;DHT22;4551;53.164;8.210;2023-04-02T09:03:53;4.60;99.90
9033;DHT22;4551;53.164;8.210;2023-04-02T09:06:22;4.60;99.90
9033;DHT22;4551;53.164;8.210;2023-04-02T09:08:50;4.70;99.90
9033;DHT22;4551;53.164;8.210;2023-04-02T09:11:21;4.80;99.90
9033;DHT22;4551;53.164;8.210;2023-04-02T09:13:51;4.80;99.90
9033;DHT22;4551;53.164;8.210;2023-04-02T09:16:25;4.90;99.90
9033;DHT22;4551;53.164;8.210;2023-04-02T09:19:00;4.90;99.90
9033;DHT22;4551;53.164;8.210;2023-04-02T09:21:30;5.00;99.90
9033;DHT22;4551;53.164;8.210;2023-04-02T09:24:02;5.00;99.90
9033;DHT22;4551;53.164;8.210;2023-04-02T09:26:31;5.10;99.90
9033;DHT22;4551;53.164;8.210;2023-04-02T09:29:00;5.10;99.90
9033;DHT22;4551;53.164;8.210;2023-04-02T09:31:31;5.20;99.90
9033;DHT22;4551;53.164;8.210;2023-04-02T09:34:01;5.20;99.90
9033;DHT22;4551;53.164;8.210;2023-04-02T09:36:50;5.30;99.90
9033;DHT22;4551;53.164;8.210;2023-04-02T09:39:19;5.30;99.90
9033;DHT22;4551;53.164;8.210;2023-04-02T09:41:47;5.40;99.90
9033;DHT22;4551;53.164;8.210;2023-04-02T09:44:30;5.40;99.90
9033;DHT22;4551;53.164;8.210;2023-04-02T09:46:59;5.50;99.90
9033;DHT22;4551;53.164;8.210;2023-04-02T09:49:30;5.60;99.90
9033;DHT22;4551;53.164;8.210;2023-04-02T09:52:07;5.60;99.90
9033;DHT22;4551;53.164;8.210;2023-04-02T09:55:04;5.60;99.90
9033;DHT22;4551;53.164;8.210;2023-04-02T09:57:37;5.80;99.90
9033;DHT22;4551;53.164;8.210;2023-04-02T10:00:10;5.90;99.90
9033;DHT22;4551;53.164;8.210;2023-04-02T10:03:00;6.00;99.90
9033;DHT22;4551;53.164;8.210;2023-04-02T10:05:30;6.10;99.90
9033;DHT22;4551;53.164;8.210;2023-04-02T10:08:18;6.20;99.90
9033;DHT22;4551;53.164;8.210;2023-04-02T10:10:48;6.30;99.90
9033;DHT22;4551;53.164;8.210;2023-04-02T10:13:18;6.40;99.90
9033;DHT22;4551;53.164;8.210;2023-04-02T10:15:49;6.40;99.90
9033;DHT22;4551;53.164;8.210;2023-04-02T10:18:20;6.40;99.90
9033;DHT22;4551;53.164;8.210;2023-04-02T10:20:50;6.50;99.90
9033;DHT22;4551;53.164;8.210;2023-04-02T10:23:20;6.60;99.90
9033;DHT22;4551;53.164;8.210;2023-04-02T10:25:51;6.60;99.90
9033;DHT22;4551;53.164;8.210;2023-04-02T10:28:24;6.70;99.90
9033;DHT22;4551;53.164;8.210;2023-04-02T10:30:56;6.70;99.90
9033;DHT22;4551;53.164;8.210;2023-04-02T10:33:26;6.90;99.90
9033;DHT22;4551;53.164;8.210;2023-04-02T10:35:59;7.00;99.90
9033;DHT22;4551;53.164;8.210;2023-04-02T10:38:34;7.00;99.90
9033;DHT22;4551;53.164;8.210;2023-04-02T10:41:06;7.20;99.90
9033;DHT22;4551;53.164;8.210;2023-04-02T10:43:42;7.30;99.90
9033;DHT22;4551;53.164;8.210;2023-04-02T10:46:16;7.40;99.90
9033;DHT22;4551;53.164;8.210;2023-04-02T10:48:53;7.40;99.90
9033;DHT22;4551;53.164;8.210;2023-04-02T10:51:30;7.40;99.90
9033;DHT22;4551;53.164;8.210;2023-04-02T10:54:05;7.50;99.90
9033;DHT22;4551;53.164;8.210;2023-04-02T10:56:36;7.60;99.90
9033;DHT22;4551;53.164;8.210;2023-04-02T10:59:17;7.70;99.90
9033;DHT22;4551;53.164;8.210;2023-04-02T11:01:46;7.70;99.90
9033;DHT22;4551;53.164;8.210;2023-04-02T11:04:18;7.70;99.90
9033;DHT22;4551;53.164;8.210;2023-04-02T11:06:48;7.80;99.90
9033;DHT22;4551;53.164;8.210;2023-04-02T11:09:31;7.80;99.90
9033;DHT22;4551;53.164;8.210;2023-04-02T11:12:00;7.90;99.90
9033;DHT22;4551;53.164;8.210;2023-04-02T11:14:29;7.90;99.90
9033;DHT22;4551;53.164;8.210;2023-04-02T11:16:58;8.00;99.90
9033;DHT22;4551;53.164;8.210;2023-04-02T11:19:28;8.00;99.90
9033;DHT22;4551;53.164;8.210;2023-04-02T11:22:00;8.00;99.90
9033;DHT22;4551;53.164;8.210;2023-04-02T11:24:40;8.00;99.90
9033;DHT22;4551;53.164;8.210;2023-04-02T11:27:23;8.00;99.90
9033;DHT22;4551;53.164;8.210;2023-04-02T11:29:53;8.10;99.90
9033;DHT22;4551;53.164;8.210;2023-04-02T11:32:28;8.20;99.90
9033;DHT22;4551;53.164;8.210;2023-04-02T11:35:03;8.20;99.90
9033;DHT22;4551;53.164;8.210;2023-04-02T11:37:34;8.20;99.90
9033;DHT22;4551;53.164;8.210;2023-04-02T11:42:55;8.20;99.90
9033;DHT22;4551;53.164;8.210;2023-04-02T11:45:52;8.30;99.90
9033;DHT22;4551;53.164;8.210;2023-04-02T11:48:26;8.30;99.90
9033;DHT22;4551;53.164;8.210;2023-04-02T11:50:54;8.40;99.90
9033;DHT22;4551;53.164;8.210;2023-04-02T11:53:24;8.40;99.90
9033;DHT22;4551;53.164;8.210;2023-04-02T11:56:06;8.60;99.90
9033;DHT22;4551;53.164;8.210;2023-04-02T11:58:43;8.70;99.90
9033;DHT22;4551;53.164;8.210;2023-04-02T12:04:10;9.10;99.90
9033;DHT22;4551;53.164;8.210;2023-04-02T12:06:47;9.20;99.90
9033;DHT22;4551;53.164;8.210;2023-04-02T12:09:18;9.20;99.90
9033;DHT22;4551;53.164;8.210;2023-04-02T12:11:46;9.30;99.90
9033;DHT22;4551;53.164;8.210;2023-04-02T12:14:37;9.40;99.90
9033;DHT22;4551;53.164;8.210;2023-04-02T12:17:20;9.40;99.90
9033;DHT22;4551;53.164;8.210;2023-04-02T12:19:51;9.40;99.90
9033;DHT22;4551;53.164;8.210;2023-04-02T12:22:21;9.60;99.90
9033;DHT22;4551;53.164;8.210;2023-04-02T12:24:49;9.90;99.90
9033;DHT22;4551;53.164;8.210;2023-04-02T12:27:21;9.80;99.90
9033;DHT22;4551;53.164;8.210;2023-04-02T12:29:54;9.90;99.90
9033;DHT22;4551;53.164;8.210;2023-04-02T12:32:24;10.00;99.90
9033;DHT22;4551;53.164;8.210;2023-04-02T12:34:56;10.10;99.90
9033;DHT22;4551;53.164;8.210;2023-04-02T12:37:24;10.10;99.90
9033;DHT22;4551;53.164;8.210;2023-04-02T12:39:54;10.10;99.90
9033;DHT22;4551;53.164;8.210;2023-04-02T12:42:30;10.20;99.90
9033;DHT22;4551;53.164;8.210;2023-04-02T12:44:59;10.30;99.90
9033;DHT22;4551;53.164;8.210;2023-04-02T12:47:27;10.50;99.90
9033;DHT22;4551;53.164;8.210;2023-04-02T12:49:56;10.60;99.90
9033;DHT22;4551;53.164;8.210;2023-04-02T12:52:26;10.60;99.90
9033;DHT22;4551;53.164;8.210;2023-04-02T12:54:55;10.70;99.90
9033;DHT22;4551;53.164;8.210;2023-04-02T12:57:31;11.00;99.90
9033;DHT22;4551;53.164;8.210;2023-04-02T13:00:02;11.20;99.90
9033;DHT22;4551;53.164;8.210;2023-04-02T13:02:41;11.30;99.90
9033;DHT22;4551;53.164;8.210;2023-04-02T13:05:10;11.60;99.90
9033;DHT22;4551;53.164;8.210;2023-04-02T13:07:38;11.80;99.90
9033;DHT22;4551;53.164;8.210;2023-04-02T13:10:21;12.00;99.90
9033;DHT22;4551;53.164;8.210;2023-04-02T13:12:53;12.20;99.90
9033;DHT22;4551;53.164;8.210;2023-04-02T13:15:23;12.30;99.90
9033;DHT22;4551;53.164;8.210;2023-04-02T13:18:06;12.50;99.90
9033;DHT22;4551;53.164;8.210;2023-04-02T13:20:34;12.70;99.90
9033;DHT22;4551;53.164;8.210;2023-04-02T13:25:46;13.10;99.90
9033;DHT22;4551;53.164;8.210;2023-04-02T13:28:14;13.30;99.90
9033;DHT22;4551;53.164;8.210;2023-04-02T13:30:43;13.50;99.90
9033;DHT22;4551;53.164;8.210;2023-04-02T13:33:12;13.80;99.90
9033;DHT22;4551;53.164;8.210;2023-04-02T13:35:40;14.00;99.90
9033;DHT22;4551;53.164;8.210;2023-04-02T13:38:08;14.20;99.90
9033;DHT22;4551;53.164;8.210;2023-04-02T13:40:36;14.50;99.90
9033;DHT22;4551;53.164;8.210;2023-04-02T13:43:09;14.70;99.90
9033;DHT22;4551;53.164;8.210;2023-04-02T13:45:44;14.90;99.90
9033;DHT22;4551;53.164;8.210;2023-04-02T13:48:13;15.20;99.90
9033;DHT22;4551;53.164;8.210;2023-04-02T13:50:43;15.30;99.90
9033;DHT22;4551;53.164;8.210;2023-04-02T13:53:14;15.50;99.90
9033;DHT22;4551;53.164;8.210;2023-04-02T13:55:46;15.80;99.90
9033;DHT22;4551;53.164;8.210;2023-04-02T13:58:14;16.00;99.90
9033;DHT22;4551;53.164;8.210;2023-04-02T14:00:43;16.20;99.90
9033;DHT22;4551;53.164;8.210;2023-04-02T14:03:13;16.40;99.90
9033;DHT22;4551;53.164;8.210;2023-04-02T14:05:44;16.60;99.90
9033;DHT22;4551;53.164;8.210;2023-04-02T14:08:16;16.70;99.90
9033;DHT22;4551;53.164;8.210;2023-04-02T14:11:01;17.00;99.90
9033;DHT22;4551;53.164;8.210;2023-04-02T14:13:50;17.20;99.90
9033;DHT22;4551;53.164;8.210;2023-04-02T14:16:29;17.50;99.90
9033;DHT22;4551;53.164;8.210;2023-04-02T14:19:05;17.70;99.90
9033;DHT22;4551;53.164;8.210;2023-04-02T14:21:39;17.70;99.90
9033;DHT22;4551;53.164;8.210;2023-04-02T14:24:14;18.00;99.90
9033;DHT22;4551;53.164;8.210;2023-04-02T14:26:46;18.00;99.90
9033;DHT22;4551;53.164;8.210;2023-04-02T14:29:19;18.10;99.90
9033;DHT22;4551;53.164;8.210;2023-04-02T14:31:57;18.20;99.90
9033;DHT22;4551;53.164;8.210;2023-04-02T14:34:30;18.30;99.90
9033;DHT22;4551;53.164;8.210;2023-04-02T14:37:03;18.40;99.90
9033;DHT22;4551;53.164;8.210;2023-04-02T14:39:43;18.50;99.90
9033;DHT22;4551;53.164;8.210;2023-04-02T14:42:14;18.50;99.90
9033;DHT22;4551;53.164;8.210;2023-04-02T14:44:47;18.60;99.90
9033;DHT22;4551;53.164;8.210;2023-04-02T14:47:20;18.60;99.90
9033;DHT22;4551;53.164;8.210;2023-04-02T14:49:50;18.70;99.90
9033;DHT22;4551;53.164;8.210;2023-04-02T14:52:24;18.80;99.90
9033;DHT22;4551;53.164;8.210;2023-04-02T14:54:54;18.90;99.90
9033;DHT22;4551;53.164;8.210;2023-04-02T14:57:24;18.80;99.90
9033;DHT22;4551;53.164;8.210;2023-04-02T14:59:56;18.80;99.90
9033;DHT22;4551;53.164;8.210;2023-04-02T15:02:33;18.90;99.90
9033;DHT22;4551;53.164;8.210;2023-04-02T15:05:03;18.90;99.90
9033;DHT22;4551;53.164;8.210;2023-04-02T15:07:36;18.90;99.90
9033;DHT22;4551;53.164;8.210;2023-04-02T15:10:06;18.80;99.90
9033;DHT22;4551;53.164;8.210;2023-04-02T15:12:38;18.70;99.90
9033;DHT22;4551;53.164;8.210;2023-04-02T15:15:08;18.70;99.90
9033;DHT22;4551;53.164;8.210;2023-04-02T15:17:42;18.60;99.90
9033;DHT22;4551;53.164;8.210;2023-04-02T15:20:11;18.60;99.90
9033;DHT22;4551;53.164;8.210;2023-04-02T15:22:41;18.80;99.90
9033;DHT22;4551;53.164;8.210;2023-04-02T15:25:16;18.70;99.90
9033;DHT22;4551;53.164;8.210;2023-04-02T15:27:50;18.80;99.90
9033;DHT22;4551;53.164;8.210;2023-04-02T15:30:21;18.90;99.90
9033;DHT22;4551;53.164;8.210;2023-04-02T15:32:51;18.80;99.90
9033;DHT22;4551;53.164;8.210;2023-04-02T15:35:24;18.90;99.90
9033;DHT22;4551;53.164;8.210;2023-04-02T15:37:56;18.80;99.90
9033;DHT22;4551;53.164;8.210;2023-04-02T15:43:11;18.70;99.90
9033;DHT22;4551;53.164;8.210;2023-04-02T15:45:46;18.80;99.90
9033;DHT22;4551;53.164;8.210;2023-04-02T15:48:27;18.80;99.90
9033;DHT22;4551;53.164;8.210;2023-04-02T15:50:59;18.80;99.90
9033;DHT22;4551;53.164;8.210;2023-04-02T15:53:32;18.90;99.90
9033;DHT22;4551;53.164;8.210;2023-04-02T15:56:06;19.00;99.90
9033;DHT22;4551;53.164;8.210;2023-04-02T15:58:43;19.00;99.90
9033;DHT22;4551;53.164;8.210;2023-04-02T16:01:16;19.00;99.90
9033;DHT22;4551;53.164;8.210;2023-04-02T16:06:41;18.70;98.40
9033;DHT22;4551;53.164;8.210;2023-04-02T16:09:17;18.60;98.90
9033;DHT22;4551;53.164;8.210;2023-04-02T16:11:49;18.50;99.00
9033;DHT22;4551;53.164;8.210;2023-04-02T16:14:28;18.60;99.50
9033;DHT22;4551;53.164;8.210;2023-04-02T16:16:58;18.50;99.80
9033;DHT22;4551;53.164;8.210;2023-04-02T16:19:37;18.60;98.60
9033;DHT22;4551;53.164;8.210;2023-04-02T16:22:13;18.60;98.90
9033;DHT22;4551;53.164;8.210;2023-04-02T16:24:43;18.50;99.40
9033;DHT22;4551;53.164;8.210;2023-04-02T16:27:15;18.50;99.40
9033;DHT22;4551;53.164;8.210;2023-04-02T16:29:49;18.40;98.70
9033;DHT22;4551;53.164;8.210;2023-04-02T16:32:36;18.30;98.50
9033;DHT22;4551;53.164;8.210;2023-04-02T16:35:10;18.20;98.30
9033;DHT22;4551;53.164;8.210;2023-04-02T16:38:04;18.10;98.90
9033;DHT22;4551;53.164;8.210;2023-04-02T16:40:39;18.00;98.90
9033;DHT22;4551;53.164;8.210;2023-04-02T16:43:14;18.00;98.20
9033;DHT22;4551;53.164;8.210;2023-04-02T16:45:46;17.90;98.20
9033;DHT22;4551;53.164;8.210;2023-04-02T16:48:18;17.80;98.50
9033;DHT22;4551;53.164;8.210;2023-04-02T16:50:52;17.60;97.40
9033;DHT22;4551;53.164;8.210;2023-04-02T16:53:29;17.40;98.50
9033;DHT22;4551;53.164;8.210;2023-04-02T16:56:07;17.30;98.50
9033;DHT22;4551;53.164;8.210;2023-04-02T16:58:41;17.00;97.80
9033;DHT22;4551;53.164;8.210;2023-04-02T17:01:14;16.80;98.00
9033;DHT22;4551;53.164;8.210;2023-04-02T17:03:46;16.60;98.00
9033;DHT22;4551;53.164;8.210;2023-04-02T17:06:22;16.50;98.20